createdAt,value
2019-03-17T00:02:35.874Z,10.43
2019-03-17T00:07:42.187Z,8.57
2019-03-17T00:12:48.624Z,10.00
2019-03-17T00:17:55.064Z,11.00
2019-03-17T00:23:01.722Z,11.00
2019-03-17T00:28:08.019Z,9.57
2019-03-17T00:33:15.246Z,11.38
2019-03-17T00:38:18.404Z,11.33
2019-03-17T00:43:23.856Z,10.00
2019-03-17T00:48:29.395Z,8.67
2019-03-17T00:53:35.627Z,9.00
2019-03-17T00:58:41.172Z,8.00
2019-03-17T01:03:46.786Z,8.00
2019-03-17T01:08:52.497Z,8.00
2019-03-17T01:13:58.791Z,8.29
2019-03-17T01:19:03.375Z,8.57
2019-03-17T01:24:07.198Z,8.00
2019-03-17T01:29:10.904Z,7.50
2019-03-17T01:34:15.482Z,5.83
2019-03-17T01:39:20.967Z,10.86
2019-03-17T01:44:25.587Z,8.00
2019-03-17T01:49:29.554Z,7.00
2019-03-17T01:54:33.368Z,7.67
2019-03-17T01:59:38.174Z,6.50
2019-03-17T02:04:44.541Z,7.00
2019-03-17T02:09:48.427Z,6.50
2019-03-17T02:14:53.217Z,6.00
2019-03-17T02:19:56.379Z,6.00
2019-03-17T02:25:00.387Z,7.00
2019-03-17T02:30:11.893Z,8.57
2019-03-17T02:35:16.190Z,8.00
2019-03-17T02:40:20.353Z,6.00
2019-03-17T02:45:24.443Z,6.50
2019-03-17T02:50:28.720Z,4.50
2019-03-17T02:55:33.707Z,6.50
2019-03-17T03:00:42.336Z,6.00
2019-03-17T03:05:54.883Z,6.00
2019-03-17T03:10:55.818Z,5.00
2019-03-17T03:16:05.361Z,5.89
2019-03-17T03:21:07.946Z,5.00
2019-03-17T03:26:11.307Z,5.67
2019-03-17T03:31:18.268Z,7.00
2019-03-17T03:36:22.076Z,6.00
2019-03-17T03:41:25.220Z,5.33
2019-03-17T03:46:30.788Z,6.00
2019-03-17T03:51:38.821Z,6.30
2019-03-17T03:56:46.924Z,6.00
2019-03-17T04:01:51.685Z,6.00
2019-03-17T04:06:54.715Z,3.00
2019-03-17T04:11:58.019Z,6.00
2019-03-17T04:17:05.190Z,6.78
2019-03-17T04:22:08.846Z,6.00
2019-03-17T04:27:14.423Z,5.00
2019-03-17T04:32:22.370Z,6.00
2019-03-17T04:37:27.078Z,5.00
2019-03-17T04:42:33.594Z,5.00
2019-03-17T04:47:38.132Z,4.00
2019-03-17T04:52:45.383Z,5.33
2019-03-17T04:57:50.132Z,4.50
2019-03-17T05:02:55.694Z,7.00
2019-03-17T05:08:00.198Z,5.00
2019-03-17T05:13:03.935Z,5.50
2019-03-17T05:18:11.517Z,6.00
2019-03-17T05:23:15.928Z,6.60
2019-03-17T05:28:23.322Z,4.50
2019-03-17T05:33:27.171Z,6.00
2019-03-17T05:38:35.042Z,7.00
2019-03-17T05:43:42.963Z,6.70
2019-03-17T05:48:46.601Z,7.67
2019-03-17T05:53:49.681Z,8.00
2019-03-17T05:58:55.217Z,5.60
2019-03-17T06:03:59.853Z,7.33
2019-03-17T06:09:05.526Z,6.00
2019-03-17T06:14:09.138Z,6.00
2019-03-17T06:19:12.867Z,5.00
2019-03-17T06:24:20.522Z,6.70
2019-03-17T06:29:27.436Z,5.00
2019-03-17T06:34:35.406Z,5.70
2019-03-17T06:39:43.234Z,6.90
2019-03-17T06:44:50.214Z,5.00
2019-03-17T06:49:54.919Z,4.83
2019-03-17T06:54:58.768Z,8.67
2019-03-17T07:00:04.890Z,7.00
2019-03-17T07:05:10.816Z,11.00
2019-03-17T07:10:14.587Z,6.00
2019-03-17T07:15:21.959Z,6.67
2019-03-17T07:20:26.012Z,6.50
2019-03-17T07:25:29.366Z,7.00
2019-03-17T07:30:32.616Z,8.00
2019-03-17T07:35:39.958Z,5.67
2019-03-17T07:40:44.085Z,20.20
2019-03-17T07:45:47.434Z,5.00
2019-03-17T07:50:50.984Z,7.40
2019-03-17T07:55:55.345Z,11.29
2019-03-17T08:01:01.027Z,18.50
2019-03-17T08:06:04.275Z,5.00
2019-03-17T08:11:08.582Z,5.50
2019-03-17T08:16:12.977Z,4.50
2019-03-17T08:21:19.846Z,6.00
2019-03-17T08:26:28.290Z,8.30
2019-03-17T08:31:32.499Z,6.00
2019-03-17T08:36:39.058Z,9.00
2019-03-17T08:41:43.863Z,7.00
2019-03-17T08:46:47.306Z,4.00
2019-03-17T08:51:50.703Z,5.00
2019-03-17T08:56:54.887Z,5.20
2019-03-17T09:01:58.891Z,6.33
2019-03-17T09:07:03.136Z,5.60
2019-03-17T09:12:06.954Z,5.33
2019-03-17T09:17:14.540Z,7.00
2019-03-17T09:22:15.631Z,6.83
2019-03-17T09:27:21.170Z,6.00
2019-03-17T09:32:25.501Z,5.00
2019-03-17T09:37:28.698Z,6.00
2019-03-17T09:42:34.701Z,6.40
2019-03-17T09:47:41.160Z,6.00
2019-03-17T09:52:46.515Z,5.00
2019-03-17T09:57:54.804Z,5.90
2019-03-17T10:02:58.343Z,4.83
2019-03-17T10:08:06.100Z,6.80
2019-03-17T10:13:10.906Z,4.83
2019-03-17T10:18:14.158Z,4.00
2019-03-17T10:23:17.670Z,7.67
2019-03-17T10:28:20.919Z,6.00
2019-03-17T10:33:24.518Z,5.00
2019-03-17T10:38:28.615Z,5.67
2019-03-17T10:43:31.907Z,6.00
2019-03-17T10:48:38.575Z,8.57
2019-03-17T10:53:42.847Z,5.00
2019-03-17T10:58:46.195Z,6.60
2019-03-17T11:03:49.601Z,4.00
2019-03-17T11:08:55.611Z,5.40
2019-03-17T11:14:00.592Z,7.00
2019-03-17T11:19:04.085Z,3.33
2019-03-17T11:24:07.440Z,4.00
2019-03-17T11:29:10.783Z,8.00
2019-03-17T11:34:14.239Z,8.00
2019-03-17T11:39:21.004Z,6.20
2019-03-17T11:44:25.309Z,7.33
2019-03-17T11:49:28.656Z,6.00
2019-03-17T11:54:32.221Z,6.67
2019-03-17T11:59:36.846Z,3.00
2019-03-17T12:04:40.512Z,7.33
2019-03-17T12:09:50.047Z,7.67
2019-03-17T12:14:49.378Z,4.00
2019-03-17T12:19:52.843Z,4.40
2019-03-17T12:24:56.239Z,5.67
2019-03-17T12:30:00.473Z,6.00
2019-03-17T12:35:03.827Z,6.00
2019-03-17T12:40:10.815Z,7.40
2019-03-17T12:45:18.550Z,5.67
2019-03-17T12:50:23.590Z,6.00
2019-03-17T12:55:26.318Z,4.00
2019-03-17T13:00:29.824Z,6.00
2019-03-17T13:05:33.396Z,6.17
2019-03-17T13:10:37.641Z,5.00
2019-03-17T13:15:44.565Z,5.00
2019-03-17T13:20:50.458Z,5.00
2019-03-17T13:25:54.511Z,3.33
2019-03-17T13:31:02.199Z,4.50
2019-03-17T13:36:06.588Z,5.00
2019-03-17T13:41:12.321Z,6.17
2019-03-17T13:46:19.198Z,4.20
2019-03-17T13:51:23.152Z,4.00
2019-03-17T13:56:29.974Z,5.00
2019-03-17T14:01:36.884Z,3.00
2019-03-17T14:06:43.643Z,6.83
2019-03-17T14:11:50.511Z,5.00
2019-03-17T14:16:54.519Z,4.00
2019-03-17T14:21:58.535Z,3.33
2019-03-17T14:27:02.607Z,10.67
2019-03-17T14:32:06.646Z,6.00
2019-03-17T14:37:09.987Z,5.00
2019-03-17T14:42:13.323Z,3.00
2019-03-17T14:47:16.575Z,6.00
2019-03-17T14:52:20.299Z,5.00
2019-03-17T14:57:24.159Z,3.33
2019-03-17T15:02:28.067Z,3.33
2019-03-17T15:07:32.055Z,5.60
2019-03-17T15:12:36.127Z,7.00
2019-03-17T15:17:40.911Z,4.83
2019-03-17T15:22:44.210Z,6.00
2019-03-17T15:27:47.373Z,4.67
2019-03-17T15:32:51.097Z,3.00
2019-03-17T15:37:54.898Z,5.00
2019-03-17T15:42:58.239Z,4.80
2019-03-17T15:48:04.886Z,4.60
2019-03-17T15:53:12.890Z,5.80
2019-03-17T15:58:17.647Z,4.67
2019-03-17T16:03:20.895Z,6.00
2019-03-17T16:08:24.959Z,9.67
2019-03-17T16:13:33.033Z,6.70
2019-03-17T16:18:37.887Z,7.00
2019-03-17T16:23:41.889Z,6.60
2019-03-17T16:28:50.106Z,6.20
2019-03-17T16:33:59.021Z,9.45
2019-03-17T16:39:05.408Z,7.00
2019-03-17T16:44:11.976Z,6.00
2019-03-17T16:49:20.319Z,4.10
2019-03-17T16:54:23.686Z,6.00
2019-03-17T16:59:27.043Z,6.00
2019-03-17T17:04:31.191Z,8.00
2019-03-17T17:09:39.711Z,10.91
2019-03-17T17:14:43.314Z,6.50
2019-03-17T17:19:50.275Z,7.50
2019-03-17T17:24:53.952Z,7.00
2019-03-17T17:30:01.604Z,9.00
2019-03-17T17:35:09.485Z,7.50
2019-03-17T17:40:17.907Z,6.20
2019-03-17T17:45:26.543Z,11.43
2019-03-17T17:50:31.742Z,5.50
2019-03-17T17:55:35.947Z,26.00
2019-03-17T18:00:40.508Z,7.83
2019-03-17T18:05:46.245Z,12.71
2019-03-17T18:10:57.314Z,11.00
2019-03-17T18:16:04.848Z,32.00
2019-03-17T18:21:08.900Z,13.20
2019-03-17T18:26:14.243Z,8.43
2019-03-17T18:31:18.057Z,10.00
2019-03-17T18:36:26.754Z,23.00
2019-03-17T18:41:32.992Z,21.29
2019-03-17T18:46:40.810Z,9.00
2019-03-17T18:51:46.593Z,18.71
2019-03-17T18:56:55.559Z,20.12
2019-03-17T19:01:59.422Z,8.17
2019-03-17T19:07:04.106Z,15.57
2019-03-17T19:12:10.496Z,14.50
2019-03-17T19:17:16.021Z,16.29
2019-03-17T19:22:20.044Z,12.00
2019-03-17T19:27:26.214Z,19.50
2019-03-17T19:32:34.172Z,14.44
2019-03-17T19:37:41.128Z,15.67
2019-03-17T19:42:57.991Z,22.11
2019-03-17T19:47:52.958Z,23.75
2019-03-17T19:52:57.071Z,22.60
2019-03-17T19:58:02.080Z,15.50
2019-03-17T20:03:07.547Z,13.71
2019-03-17T20:08:16.570Z,17.75
2019-03-17T20:13:21.495Z,18.50
2019-03-17T20:18:28.995Z,15.78
2019-03-17T20:23:35.667Z,12.20
2019-03-17T20:28:48.026Z,14.40
2019-03-17T20:34:04.522Z,14.00
2019-03-17T20:39:09.728Z,17.00
2019-03-17T20:44:14.803Z,13.00
2019-03-17T20:49:20.790Z,10.57
2019-03-17T20:54:26.535Z,13.71
2019-03-17T20:59:32.218Z,11.43
2019-03-17T21:04:38.541Z,14.63
2019-03-17T21:09:43.568Z,15.75
2019-03-17T21:14:50.256Z,12.00
2019-03-17T21:19:54.088Z,12.00
2019-03-17T21:24:58.054Z,13.00
2019-03-17T21:30:04.974Z,18.57
2019-03-17T21:35:10.867Z,23.00
2019-03-17T21:40:18.123Z,28.38
2019-03-17T21:45:23.740Z,21.50
2019-03-17T21:50:29.608Z,18.00
2019-03-17T21:55:35.720Z,20.00
2019-03-17T22:00:43.019Z,16.11
2019-03-17T22:05:48.132Z,18.57
2019-03-17T22:10:51.193Z,24.50
2019-03-17T22:15:59.195Z,18.37
2019-03-17T22:21:07.055Z,23.00
2019-03-17T22:26:13.290Z,14.14
2019-03-17T22:31:16.629Z,18.00
2019-03-17T22:36:27.175Z,27.55
2019-03-17T22:41:31.175Z,24.00
2019-03-17T22:46:40.186Z,24.20
2019-03-17T22:51:53.347Z,23.79
2019-03-17T22:57:01.059Z,10.86
2019-03-17T23:02:07.064Z,13.00
2019-03-17T23:07:12.743Z,13.00
2019-03-17T23:12:18.428Z,12.00
2019-03-17T23:17:24.715Z,13.38
2019-03-17T23:22:31.208Z,15.38
2019-03-17T23:27:35.133Z,15.00
2019-03-17T23:32:41.764Z,15.86
2019-03-17T23:37:50.903Z,25.25
2019-03-17T23:42:55.873Z,23.75
2019-03-17T23:47:59.284Z,23.00
2019-03-17T23:53:05.275Z,15.00
2019-03-17T23:58:12.097Z,9.00
